Time;durP1;ratioP1;P1;durP2;ratioP2;P2;SDS_P1;SDS_P2;PMS_P1;PMS_P2;Temp;Humidity;BMP_temperature;BMP_pressure;BME280_temperature;BME280_humidity;BME280_pressure;Samples;Min_cycle;Max_cycle;Signal;HPM_P1;HPM_P2
2023/12/20 00:02:21;;;;;;;20.95;2.70;;;;;;;;;;4982944;28;20034;-78
2023/12/20 00:04:47;;;;;;;26.30;2.83;;;;;;;;;;4984289;28;20485;-78
2023/12/20 00:07:13;;;;;;;12.55;2.15;;;;;;;;;;4974437;28;20078;-79
2023/12/20 00:09:39;;;;;;;19.50;2.20;;;;;;;;;;4980939;28;20030;-76
2023/12/20 00:12:06;;;;;;;17.45;1.95;;;;;;;;;;4988537;28;20034;-76
2023/12/20 00:14:32;;;;;;;23.50;3.80;;;;;;;;;;4981849;28;20034;-75
2023/12/20 00:16:58;;;;;;;15.90;2.88;;;;;;;;;;4988576;28;20038;-76
2023/12/20 00:19:24;;;;;;;24.92;4.28;;;;;;;;;;4994938;28;20027;-76
2023/12/20 00:21:50;;;;;;;21.25;2.17;;;;;;;;;;4994111;28;20034;-75
2023/12/20 00:24:16;;;;;;;27.80;3.30;;;;;;;;;;4990241;28;20031;-75
2023/12/20 00:26:42;;;;;;;17.85;2.38;;;;;;;;;;4980364;28;20034;-75
2023/12/20 00:29:08;;;;;;;21.08;2.72;;;;;;;;;;4977069;28;20472;-75
2023/12/20 00:31:34;;;;;;;25.67;3.17;;;;;;;;;;4982987;28;20074;-75
2023/12/20 00:34:00;;;;;;;24.23;2.63;;;;;;;;;;4979423;28;20130;-77
2023/12/20 00:36:27;;;;;;;27.23;3.10;;;;;;;;;;4981321;28;20451;-76
2023/12/20 00:38:53;;;;;;;23.27;3.67;;;;;;;;;;4991126;28;20546;-77
2023/12/20 00:41:19;;;;;;;31.20;3.05;;;;;;;;;;4973272;28;20042;-79
2023/12/20 00:43:45;;;;;;;24.95;2.67;;;;;;;;;;4980077;28;20026;-78
2023/12/20 00:46:11;;;;;;;17.27;2.85;;;;;;;;;;4987269;28;20465;-79
2023/12/20 00:48:37;;;;;;;23.70;3.70;;;;;;;;;;4991689;28;20054;-76
2023/12/20 00:51:03;;;;;;;22.85;3.78;;;;;;;;;;4990821;28;20095;-76
2023/12/20 00:53:29;;;;;;;24.05;3.28;;;;;;;;;;4992805;28;20089;-76
2023/12/20 00:55:55;;;;;;;30.75;4.50;;;;;;;;;;4984947;28;20387;-76
2023/12/20 00:58:22;;;;;;;21.92;2.38;;;;;;;;;;4985192;28;20381;-76
2023/12/20 01:00:48;;;;;;;14.98;2.92;;;;;;;;;;4982925;28;20042;-76
2023/12/20 01:03:15;;;;;;;31.27;3.53;;;;;;;;;;4988722;28;20073;-75
2023/12/20 01:05:41;;;;;;;29.73;4.63;;;;;;;;;;4987396;28;20124;-78
2023/12/20 01:08:07;;;;;;;22.95;2.55;;;;;;;;;;4972930;28;20035;-76
2023/12/20 01:10:33;;;;;;;19.73;3.15;;;;;;;;;;4982912;28;20662;-77
2023/12/20 01:12:59;;;;;;;18.20;2.45;;;;;;;;;;4976231;28;20033;-76
2023/12/20 01:15:25;;;;;;;20.77;2.38;;;;;;;;;;4984406;28;20041;-76
2023/12/20 01:17:52;;;;;;;25.17;2.85;;;;;;;;;;4975560;28;20601;-76
2023/12/20 01:20:19;;;;;;;14.98;2.70;;;;;;;;;;4979783;28;20431;-75
2023/12/20 01:22:45;;;;;;;18.17;2.83;;;;;;;;;;4990025;28;20530;-76
2023/12/20 01:25:12;;;;;;;24.83;3.80;;;;;;;;;;4984968;28;20022;-75
2023/12/20 01:27:38;;;;;;;21.92;3.00;;;;;;;;;;4990482;28;20035;-76
2023/12/20 01:30:04;;;;;;;27.08;4.50;;;;;;;;;;4980960;28;20080;-77
2023/12/20 01:32:30;;;;;;;20.63;4.13;;;;;;;;;;4983893;28;20042;-76
2023/12/20 01:34:56;;;;;;;31.52;5.13;;;;;;;;;;4991770;28;20026;-76
2023/12/20 01:37:25;;;;;;;22.10;3.67;;;;;;;;;;4987488;28;20034;-76
2023/12/20 01:39:51;;;;;;;29.77;4.82;;;;;;;;;;4992098;28;20022;-79
2023/12/20 01:42:17;;;;;;;24.05;3.47;;;;;;;;;;4986881;28;20090;-76
2023/12/20 01:44:43;;;;;;;24.92;3.38;;;;;;;;;;4983341;28;20038;-77
2023/12/20 01:47:09;;;;;;;28.52;4.53;;;;;;;;;;4972274;28;20429;-76
2023/12/20 01:49:36;;;;;;;27.13;3.85;;;;;;;;;;4973792;28;20495;-75
2023/12/20 01:52:02;;;;;;;23.08;4.00;;;;;;;;;;4983550;28;20026;-76
2023/12/20 01:54:28;;;;;;;36.08;4.30;;;;;;;;;;4986646;28;20039;-75
2023/12/20 01:56:54;;;;;;;22.23;2.97;;;;;;;;;;4988071;28;20089;-75
2023/12/20 01:59:21;;;;;;;31.88;4.57;;;;;;;;;;4982584;28;20026;-74
2023/12/20 02:01:47;;;;;;;42.55;5.55;;;;;;;;;;4982102;28;20636;-76
2023/12/20 02:04:13;;;;;;;35.67;7.07;;;;;;;;;;4976315;28;20507;-78
2023/12/20 02:06:40;;;;;;;25.23;3.63;;;;;;;;;;4982602;28;20094;-75
2023/12/20 02:09:07;;;;;;;25.10;3.85;;;;;;;;;;4977321;28;20027;-77
2023/12/20 02:11:35;;;;;;;36.15;5.05;;;;;;;;;;4995448;28;20069;-74
2023/12/20 02:14:01;;;;;;;37.42;4.13;;;;;;;;;;4975275;28;20029;-79
2023/12/20 02:16:27;;;;;;;33.13;5.57;;;;;;;;;;4976274;28;20053;-77
2023/12/20 02:18:54;;;;;;;32.20;4.45;;;;;;;;;;4985902;28;20080;-75
2023/12/20 02:21:25;;;;;;;30.65;3.80;;;;;;;;;;4979950;28;20454;-76
2023/12/20 02:23:51;;;;;;;30.30;3.78;;;;;;;;;;4985596;28;20041;-76
2023/12/20 02:26:18;;;;;;;36.80;4.90;;;;;;;;;;4974001;28;20097;-75
2023/12/20 02:28:44;;;;;;;31.00;5.53;;;;;;;;;;4982194;28;20034;-75
2023/12/20 02:31:10;;;;;;;50.30;9.73;;;;;;;;;;4981942;28;20033;-77
2023/12/20 02:33:36;;;;;;;34.65;6.07;;;;;;;;;;4982478;28;20043;-75
2023/12/20 02:36:02;;;;;;;36.55;7.10;;;;;;;;;;4985107;28;20022;-74
2023/12/20 02:38:28;;;;;;;32.05;5.15;;;;;;;;;;4987591;28;20050;-77
2023/12/20 02:40:54;;;;;;;36.97;4.50;;;;;;;;;;4996209;28;20024;-77
2023/12/20 02:43:20;;;;;;;41.67;5.60;;;;;;;;;;4981329;28;20162;-75
2023/12/20 02:45:47;;;;;;;32.50;4.20;;;;;;;;;;4974303;28;20034;-75
2023/12/20 02:48:13;;;;;;;29.13;5.35;;;;;;;;;;4988978;28;20093;-75
2023/12/20 02:50:39;;;;;;;28.77;4.35;;;;;;;;;;4983376;28;20031;-76
2023/12/20 02:53:05;;;;;;;33.08;4.35;;;;;;;;;;4975696;28;20535;-78
2023/12/20 02:55:31;;;;;;;38.35;5.35;;;;;;;;;;4977846;28;20019;-77
2023/12/20 02:57:57;;;;;;;28.90;4.72;;;;;;;;;;4974143;28;20033;-76
2023/12/20 03:00:24;;;;;;;35.83;5.32;;;;;;;;;;4972636;28;20129;-76
2023/12/20 03:02:50;;;;;;;27.45;4.60;;;;;;;;;;4988852;28;20034;-76
2023/12/20 03:05:16;;;;;;;26.85;4.13;;;;;;;;;;4971118;28;20646;-76
2023/12/20 03:07:42;;;;;;;35.83;5.72;;;;;;;;;;4974259;28;20130;-81
2023/12/20 03:10:09;;;;;;;32.15;4.80;;;;;;;;;;4984292;28;20113;-76
2023/12/20 03:12:35;;;;;;;24.42;4.30;;;;;;;;;;4984774;28;20034;-78
2023/12/20 03:15:01;;;;;;;36.30;5.22;;;;;;;;;;4969689;28;20089;-75
2023/12/20 03:17:27;;;;;;;37.83;5.05;;;;;;;;;;4989335;28;20026;-76
2023/12/20 03:19:53;;;;;;;41.13;4.82;;;;;;;;;;4978955;28;20030;-77
2023/12/20 03:22:19;;;;;;;30.70;4.93;;;;;;;;;;4970475;28;20031;-76
2023/12/20 03:24:45;;;;;;;31.80;6.28;;;;;;;;;;4979428;28;20507;-76
2023/12/20 03:27:11;;;;;;;28.80;4.90;;;;;;;;;;4987138;28;20026;-75
2023/12/20 03:29:37;;;;;;;37.40;4.65;;;;;;;;;;4974456;28;20038;-75
2023/12/20 03:32:03;;;;;;;37.55;5.00;;;;;;;;;;4986828;28;20031;-77
2023/12/20 03:34:29;;;;;;;37.08;3.75;;;;;;;;;;4982230;28;20094;-76
2023/12/20 03:36:55;;;;;;;41.33;6.90;;;;;;;;;;4976033;28;20065;-77
2023/12/20 03:39:21;;;;;;;36.75;5.43;;;;;;;;;;4978324;28;20031;-76
2023/12/20 03:41:47;;;;;;;35.33;4.63;;;;;;;;;;4996418;28;20030;-75
2023/12/20 03:44:14;;;;;;;41.60;5.57;;;;;;;;;;4981494;28;20042;-76
2023/12/20 03:46:40;;;;;;;30.42;5.03;;;;;;;;;;4989568;28;20031;-75
2023/12/20 03:49:06;;;;;;;37.72;5.93;;;;;;;;;;4982904;28;20041;-76
2023/12/20 03:51:32;;;;;;;35.63;5.38;;;;;;;;;;4982099;28;20022;-76
2023/12/20 03:53:58;;;;;;;35.10;4.68;;;;;;;;;;4989131;28;20460;-79
2023/12/20 03:56:24;;;;;;;31.90;3.88;;;;;;;;;;4980665;28;20030;-76
2023/12/20 03:58:50;;;;;;;23.90;5.68;;;;;;;;;;4974225;28;20035;-75
2023/12/20 04:01:16;;;;;;;27.98;4.75;;;;;;;;;;4985839;28;20118;-75
2023/12/20 04:03:42;;;;;;;25.38;3.85;;;;;;;;;;4989370;28;20030;-75
2023/12/20 04:06:08;;;;;;;34.05;5.60;;;;;;;;;;4971158;28;20097;-75
2023/12/20 04:08:34;;;;;;;46.35;7.03;;;;;;;;;;4989498;28;20034;-75
2023/12/20 04:11:00;;;;;;;37.20;6.05;;;;;;;;;;4972352;28;20547;-78
2023/12/20 04:13:26;;;;;;;42.97;5.28;;;;;;;;;;4974392;28;20038;-75
2023/12/20 04:15:52;;;;;;;36.65;4.60;;;;;;;;;;4974795;28;20062;-75
2023/12/20 04:18:18;;;;;;;30.63;5.18;;;;;;;;;;4980288;28;20065;-75
2023/12/20 04:20:45;;;;;;;29.02;4.47;;;;;;;;;;4983285;28;20030;-75
2023/12/20 04:23:11;;;;;;;30.30;4.70;;;;;;;;;;4969167;28;20053;-75
2023/12/20 04:25:37;;;;;;;32.35;5.15;;;;;;;;;;4970899;28;20110;-76
2023/12/20 04:28:03;;;;;;;27.90;4.88;;;;;;;;;;4972655;28;20057;-75
2023/12/20 04:30:29;;;;;;;33.03;4.05;;;;;;;;;;4981997;28;20035;-78
2023/12/20 04:32:56;;;;;;;33.42;5.78;;;;;;;;;;4987702;28;20035;-75
2023/12/20 04:35:22;;;;;;;30.77;4.53;;;;;;;;;;4986960;28;20031;-76
2023/12/20 04:37:49;;;;;;;36.28;4.75;;;;;;;;;;4984453;28;20038;-76
2023/12/20 04:40:15;;;;;;;29.58;3.85;;;;;;;;;;4992189;28;20073;-75
2023/12/20 04:42:41;;;;;;;29.88;3.75;;;;;;;;;;4980451;28;20587;-76
2023/12/20 04:45:07;;;;;;;25.08;4.90;;;;;;;;;;4973716;28;20040;-75
2023/12/20 04:47:33;;;;;;;27.92;3.83;;;;;;;;;;4986191;28;20034;-75
2023/12/20 04:50:00;;;;;;;30.27;5.80;;;;;;;;;;4992864;28;20400;-76
2023/12/20 04:52:26;;;;;;;33.58;4.03;;;;;;;;;;4976942;28;20507;-80
2023/12/20 04:54:52;;;;;;;34.20;5.75;;;;;;;;;;4992723;28;20045;-76
2023/12/20 04:57:18;;;;;;;27.75;4.07;;;;;;;;;;4976620;28;20023;-75
2023/12/20 04:59:44;;;;;;;37.85;5.57;;;;;;;;;;4979991;28;20030;-76
2023/12/20 05:02:10;;;;;;;34.75;4.82;;;;;;;;;;4986802;28;20034;-74
2023/12/20 05:04:36;;;;;;;30.63;4.93;;;;;;;;;;4974765;28;20055;-75
2023/12/20 05:07:04;;;;;;;35.03;4.47;;;;;;;;;;4987374;28;20294;-76
2023/12/20 05:09:31;;;;;;;32.22;4.65;;;;;;;;;;4988584;28;20050;-75
2023/12/20 05:11:57;;;;;;;34.92;5.32;;;;;;;;;;4979000;28;20176;-76
2023/12/20 05:14:23;;;;;;;36.13;4.95;;;;;;;;;;5007837;28;20022;-75
2023/12/20 05:16:49;;;;;;;42.92;5.43;;;;;;;;;;4987848;28;20093;-75
2023/12/20 05:19:15;;;;;;;34.50;5.53;;;;;;;;;;4975657;28;20030;-78
2023/12/20 05:21:41;;;;;;;24.85;4.45;;;;;;;;;;4980924;28;20031;-78
2023/12/20 05:24:07;;;;;;;46.47;5.95;;;;;;;;;;4992372;28;20030;-75
2023/12/20 05:26:33;;;;;;;37.70;5.10;;;;;;;;;;4977949;28;20039;-77
2023/12/20 05:29:00;;;;;;;28.35;4.13;;;;;;;;;;4979929;28;20070;-76
2023/12/20 05:31:26;;;;;;;28.83;4.38;;;;;;;;;;4977503;28;20062;-75
2023/12/20 05:33:53;;;;;;;36.97;5.35;;;;;;;;;;4978551;28;20476;-77
2023/12/20 05:36:19;;;;;;;35.38;4.68;;;;;;;;;;4989364;28;20030;-78
2023/12/20 05:38:45;;;;;;;38.80;5.65;;;;;;;;;;4974742;28;20038;-76
2023/12/20 05:41:11;;;;;;;30.17;4.05;;;;;;;;;;4982173;28;20034;-76
2023/12/20 05:43:37;;;;;;;37.85;5.05;;;;;;;;;;4987968;28;20026;-76
2023/12/20 05:46:03;;;;;;;31.77;5.18;;;;;;;;;;4990969;28;20365;-76
2023/12/20 05:48:29;;;;;;;28.00;4.88;;;;;;;;;;4981063;28;20524;-77
2023/12/20 05:50:56;;;;;;;32.00;5.68;;;;;;;;;;4974612;28;20046;-78
2023/12/20 05:53:22;;;;;;;30.77;4.78;;;;;;;;;;4974157;28;20034;-77
2023/12/20 05:55:48;;;;;;;29.33;4.43;;;;;;;;;;4972486;28;20419;-75
2023/12/20 05:58:14;;;;;;;28.95;4.07;;;;;;;;;;4988310;28;20034;-76
2023/12/20 06:00:40;;;;;;;25.88;4.07;;;;;;;;;;4977973;28;20118;-76
2023/12/20 06:03:06;;;;;;;32.80;5.45;;;;;;;;;;4988262;28;20033;-77
2023/12/20 06:05:32;;;;;;;33.92;5.03;;;;;;;;;;4973214;28;20053;-77
2023/12/20 06:08:01;;;;;;;32.22;4.90;;;;;;;;;;4975604;28;20034;-76
2023/12/20 06:10:27;;;;;;;35.83;4.68;;;;;;;;;;4977315;28;20042;-77
2023/12/20 06:12:53;;;;;;;29.27;4.07;;;;;;;;;;4971435;28;20026;-78
2023/12/20 06:15:19;;;;;;;33.03;5.25;;;;;;;;;;4981758;28;20443;-81
2023/12/20 06:17:46;;;;;;;35.05;5.03;;;;;;;;;;4982784;28;20065;-74
2023/12/20 06:20:12;;;;;;;32.40;6.57;;;;;;;;;;4985444;28;20033;-75
2023/12/20 06:22:39;;;;;;;38.67;6.00;;;;;;;;;;5000281;28;20041;-80
2023/12/20 06:25:06;;;;;;;38.88;4.72;;;;;;;;;;4989913;28;20384;-76
2023/12/20 06:27:32;;;;;;;55.58;18.00;;;;;;;;;;4971270;28;20080;-78
2023/12/20 06:29:59;;;;;;;42.33;6.70;;;;;;;;;;4977569;28;20042;-75
2023/12/20 06:32:25;;;;;;;29.77;6.65;;;;;;;;;;4984197;28;20026;-76
2023/12/20 06:34:51;;;;;;;31.73;5.30;;;;;;;;;;4988397;28;20022;-76
2023/12/20 06:37:17;;;;;;;30.83;6.57;;;;;;;;;;4989699;28;20045;-76
2023/12/20 06:39:43;;;;;;;32.03;5.15;;;;;;;;;;4989303;28;20029;-76
2023/12/20 06:42:09;;;;;;;40.47;5.55;;;;;;;;;;4981472;28;20093;-76
2023/12/20 06:44:35;;;;;;;31.67;4.78;;;;;;;;;;4974590;28;20027;-79
2023/12/20 06:47:01;;;;;;;29.67;4.68;;;;;;;;;;4989770;28;20034;-76
2023/12/20 06:49:27;;;;;;;31.35;4.28;;;;;;;;;;4986551;28;20031;-75
2023/12/20 06:51:53;;;;;;;27.48;6.65;;;;;;;;;;4986400;28;20109;-75
2023/12/20 06:54:19;;;;;;;31.88;4.30;;;;;;;;;;4986062;28;20037;-75
2023/12/20 06:56:45;;;;;;;34.83;4.80;;;;;;;;;;4989619;28;20033;-75
2023/12/20 06:59:12;;;;;;;37.22;4.38;;;;;;;;;;4990551;28;20030;-76
2023/12/20 07:01:38;;;;;;;33.15;5.47;;;;;;;;;;4989191;28;20539;-75
2023/12/20 07:04:04;;;;;;;38.03;5.22;;;;;;;;;;4989209;28;20029;-75
2023/12/20 07:06:30;;;;;;;29.75;5.03;;;;;;;;;;4989728;28;20030;-76
2023/12/20 07:08:56;;;;;;;39.00;5.45;;;;;;;;;;4988453;28;20725;-78
2023/12/20 07:11:23;;;;;;;37.58;7.93;;;;;;;;;;4972010;28;20027;-76
2023/12/20 07:13:49;;;;;;;34.47;5.53;;;;;;;;;;4989955;28;20037;-78
2023/12/20 07:16:15;;;;;;;35.53;7.60;;;;;;;;;;4990497;28;20033;-77
2023/12/20 07:18:41;;;;;;;39.13;7.82;;;;;;;;;;4990213;28;20465;-78
2023/12/20 07:21:08;;;;;;;50.33;7.65;;;;;;;;;;4985765;28;20026;-79
2023/12/20 07:23:34;;;;;;;48.85;17.42;;;;;;;;;;4989037;28;20096;-81
2023/12/20 07:26:00;;;;;;;38.00;7.13;;;;;;;;;;4989804;28;20029;-77
2023/12/20 07:28:26;;;;;;;41.15;7.88;;;;;;;;;;4990505;28;20587;-77
2023/12/20 07:30:52;;;;;;;34.42;6.00;;;;;;;;;;4986400;28;20072;-79
2023/12/20 07:33:18;;;;;;;35.92;6.25;;;;;;;;;;4986239;28;20077;-78
2023/12/20 07:35:45;;;;;;;39.63;7.75;;;;;;;;;;4983721;28;20083;-78
2023/12/20 07:38:12;;;;;;;29.67;5.22;;;;;;;;;;4976736;28;20495;-81
2023/12/20 07:40:39;;;;;;;36.55;5.22;;;;;;;;;;4972090;28;20026;-78
2023/12/20 07:43:05;;;;;;;42.90;5.78;;;;;;;;;;4972921;28;20031;-79
2023/12/20 07:45:31;;;;;;;35.92;5.15;;;;;;;;;;4984882;28;20031;-78
2023/12/20 07:47:57;;;;;;;28.98;4.40;;;;;;;;;;4973893;28;20207;-79
2023/12/20 07:50:23;;;;;;;36.97;6.32;;;;;;;;;;4972683;28;20558;-78
2023/12/20 07:52:49;;;;;;;32.03;5.97;;;;;;;;;;4983518;28;20035;-78
2023/12/20 07:55:15;;;;;;;41.65;7.13;;;;;;;;;;4967134;28;20039;-79
2023/12/20 07:57:41;;;;;;;32.90;4.63;;;;;;;;;;4983474;28;20053;-79
2023/12/20 08:00:08;;;;;;;26.50;5.97;;;;;;;;;;4982329;28;20089;-77
2023/12/20 08:02:34;;;;;;;32.15;6.10;;;;;;;;;;4979522;28;20129;-77
2023/12/20 08:05:00;;;;;;;26.75;5.05;;;;;;;;;;4973867;28;20050;-78
2023/12/20 08:07:26;;;;;;;34.00;5.75;;;;;;;;;;4984141;28;20050;-77
2023/12/20 08:09:54;;;;;;;37.05;5.88;;;;;;;;;;4996854;28;20030;-78
2023/12/20 08:12:20;;;;;;;77.10;31.20;;;;;;;;;;4972012;28;20035;-77
2023/12/20 08:14:46;;;;;;;33.97;5.40;;;;;;;;;;4980084;28;20126;-77
2023/12/20 08:17:12;;;;;;;29.65;4.68;;;;;;;;;;4980671;28;20062;-75
2023/12/20 08:19:38;;;;;;;24.92;3.97;;;;;;;;;;4979615;28;20037;-77
2023/12/20 08:22:04;;;;;;;25.38;4.72;;;;;;;;;;4984221;28;20034;-78
2023/12/20 08:24:31;;;;;;;31.38;5.25;;;;;;;;;;4986946;28;20037;-77
2023/12/20 08:26:57;;;;;;;34.08;4.32;;;;;;;;;;4983644;28;20035;-78
2023/12/20 08:29:23;;;;;;;26.48;4.32;;;;;;;;;;4990594;28;20042;-78
2023/12/20 08:31:53;;;;;;;46.90;6.10;;;;;;;;;;4991737;28;20108;-77
2023/12/20 08:34:19;;;;;;;38.33;6.05;;;;;;;;;;4992578;28;20579;-79
2023/12/20 08:36:45;;;;;;;29.65;4.40;;;;;;;;;;4992235;28;20495;-78
2023/12/20 08:39:11;;;;;;;35.05;5.75;;;;;;;;;;5013087;28;20052;-77
2023/12/20 08:41:37;;;;;;;35.05;6.07;;;;;;;;;;5006605;28;20026;-77
2023/12/20 08:44:03;;;;;;;25.38;5.15;;;;;;;;;;4992889;28;20026;-78
2023/12/20 08:46:29;;;;;;;31.92;5.88;;;;;;;;;;4992863;28;20117;-77
2023/12/20 08:48:56;;;;;;;29.85;4.82;;;;;;;;;;4993289;28;20042;-77
2023/12/20 08:51:23;;;;;;;28.17;4.18;;;;;;;;;;4993192;28;20030;-77
2023/12/20 08:53:49;;;;;;;30.00;5.70;;;;;;;;;;4989002;28;20029;-78
2023/12/20 08:56:16;;;;;;;35.22;4.47;;;;;;;;;;4992595;28;20026;-78
2023/12/20 08:58:42;;;;;;;36.72;6.47;;;;;;;;;;4993032;28;20046;-79
2023/12/20 09:01:09;;;;;;;28.35;4.07;;;;;;;;;;4993224;28;20034;-77
2023/12/20 09:03:35;;;;;;;28.58;4.75;;;;;;;;;;4991959;28;20057;-79
2023/12/20 09:06:01;;;;;;;30.73;5.05;;;;;;;;;;4992817;28;20053;-78
2023/12/20 09:08:27;;;;;;;30.67;5.43;;;;;;;;;;4992476;28;20444;-78
2023/12/20 09:10:53;;;;;;;37.25;5.68;;;;;;;;;;4991207;28;20030;-78
2023/12/20 09:13:20;;;;;;;27.73;4.07;;;;;;;;;;4992763;28;20033;-78
2023/12/20 09:15:46;;;;;;;29.38;5.07;;;;;;;;;;4989317;28;20026;-78
2023/12/20 09:18:12;;;;;;;14.65;2.28;;;;;;;;;;4973355;28;20113;-77
2023/12/20 09:20:38;;;;;;;9.55;1.40;;;;;;;;;;4973370;28;20031;-78
2023/12/20 09:23:04;;;;;;;12.77;1.83;;;;;;;;;;4986502;28;20035;-78
2023/12/20 09:25:30;;;;;;;10.25;1.15;;;;;;;;;;4994059;28;20409;-77
2023/12/20 09:27:56;;;;;;;6.65;0.93;;;;;;;;;;5007719;28;20499;-77
2023/12/20 09:30:22;;;;;;;12.68;1.13;;;;;;;;;;4992341;28;20049;-77
2023/12/20 09:32:48;;;;;;;9.00;1.02;;;;;;;;;;4992557;28;20035;-77
2023/12/20 09:35:15;;;;;;;9.52;1.80;;;;;;;;;;4992197;28;20033;-77
2023/12/20 09:37:44;;;;;;;8.18;1.45;;;;;;;;;;4981117;28;20034;-78
2023/12/20 09:40:12;;;;;;;10.52;1.35;;;;;;;;;;4980326;28;20113;-77
2023/12/20 09:42:51;;;;;;;8.70;1.23;;;;;;;;;;4990843;28;20030;-77
2023/12/20 09:45:19;;;;;;;9.27;1.45;;;;;;;;;;4990762;28;20545;-78
2023/12/20 09:47:46;;;;;;;9.77;1.45;;;;;;;;;;4988285;28;20117;-78
2023/12/20 09:50:12;;;;;;;12.57;1.58;;;;;;;;;;4991972;28;20029;-78
2023/12/20 09:52:39;;;;;;;15.82;1.40;;;;;;;;;;4991757;28;20022;-77
2023/12/20 09:55:07;;;;;;;14.20;3.72;;;;;;;;;;4991838;28;20490;-78
2023/12/20 09:57:33;;;;;;;9.80;1.25;;;;;;;;;;4991303;28;20720;-78
2023/12/20 09:59:59;;;;;;;11.05;1.88;;;;;;;;;;4990944;28;20494;-78
2023/12/20 10:02:27;;;;;;;10.00;1.63;;;;;;;;;;4991695;28;20102;-78
2023/12/20 10:04:53;;;;;;;16.08;2.35;;;;;;;;;;4990151;28;20125;-78
2023/12/20 10:07:20;;;;;;;14.73;1.77;;;;;;;;;;4991060;28;20467;-78
2023/12/20 10:09:47;;;;;;;13.57;2.13;;;;;;;;;;4989894;28;20106;-78
2023/12/20 10:12:13;;;;;;;13.73;2.45;;;;;;;;;;4991268;28;20038;-78
2023/12/20 10:14:42;;;;;;;16.80;1.95;;;;;;;;;;4991215;28;20026;-80
2023/12/20 10:17:08;;;;;;;9.02;1.52;;;;;;;;;;4988870;28;20096;-77
2023/12/20 10:19:34;;;;;;;18.30;2.33;;;;;;;;;;4990340;28;20125;-77
2023/12/20 10:22:00;;;;;;;17.48;2.45;;;;;;;;;;4989197;28;20038;-79
2023/12/20 10:24:29;;;;;;;11.80;1.85;;;;;;;;;;4991278;28;20038;-79
2023/12/20 10:27:05;;;;;;;17.55;3.58;;;;;;;;;;4991112;28;20727;-77
2023/12/20 10:29:33;;;;;;;13.82;2.10;;;;;;;;;;4990055;28;20387;-77
2023/12/20 10:31:59;;;;;;;17.73;1.98;;;;;;;;;;4989779;28;20037;-77
2023/12/20 10:34:25;;;;;;;10.45;2.03;;;;;;;;;;4991011;28;20030;-77
2023/12/20 10:36:52;;;;;;;12.88;2.22;;;;;;;;;;4992509;28;20473;-78
2023/12/20 10:39:20;;;;;;;13.85;1.77;;;;;;;;;;4993901;28;20018;-77
2023/12/20 10:41:46;;;;;;;10.77;1.92;;;;;;;;;;4988583;28;20084;-77
2023/12/20 10:44:13;;;;;;;16.73;2.58;;;;;;;;;;4983003;28;20684;-77
2023/12/20 10:46:40;;;;;;;13.40;2.13;;;;;;;;;;4987122;28;20096;-78
2023/12/20 10:49:07;;;;;;;20.25;1.83;;;;;;;;;;4987542;28;20030;-77
2023/12/20 10:51:34;;;;;;;12.32;2.30;;;;;;;;;;4991087;28;20023;-77
2023/12/20 10:54:01;;;;;;;16.13;3.15;;;;;;;;;;4989991;28;20041;-77
2023/12/20 10:56:30;;;;;;;12.48;1.67;;;;;;;;;;5010241;28;20034;-77
2023/12/20 10:58:56;;;;;;;11.15;1.92;;;;;;;;;;4995346;28;20030;-77
2023/12/20 11:01:23;;;;;;;15.82;2.28;;;;;;;;;;4990292;28;20057;-78
2023/12/20 11:03:50;;;;;;;25.08;3.47;;;;;;;;;;4990723;28;20092;-77
2023/12/20 11:06:35;;;;;;;11.13;1.55;;;;;;;;;;4984000;28;20026;-77
2023/12/20 11:09:14;;;;;;;12.52;1.75;;;;;;;;;;4990362;28;20484;-78
2023/12/20 11:11:48;;;;;;;13.27;1.83;;;;;;;;;;4990487;28;20105;-77
2023/12/20 11:14:34;;;;;;;16.23;3.00;;;;;;;;;;4989992;28;20034;-77
2023/12/20 11:17:13;;;;;;;15.13;3.15;;;;;;;;;;4988415;28;20521;-77
2023/12/20 11:20:01;;;;;;;18.77;2.08;;;;;;;;;;4986715;28;20125;-78
2023/12/20 11:22:28;;;;;;;14.18;2.38;;;;;;;;;;4986092;28;20421;-76
2023/12/20 11:24:55;;;;;;;14.85;2.88;;;;;;;;;;4990341;28;20031;-77
2023/12/20 11:27:22;;;;;;;15.32;2.33;;;;;;;;;;4989866;28;20026;-78
2023/12/20 11:30:00;;;;;;;15.98;3.03;;;;;;;;;;4990406;28;20034;-77
2023/12/20 11:32:30;;;;;;;17.73;2.92;;;;;;;;;;4990148;28;20037;-76
2023/12/20 11:34:56;;;;;;;16.27;2.33;;;;;;;;;;4990361;28;20631;-77
2023/12/20 11:37:22;;;;;;;18.15;2.15;;;;;;;;;;4990872;28;20049;-78
2023/12/20 11:40:04;;;;;;;10.27;1.95;;;;;;;;;;4992463;28;20463;-77
2023/12/20 11:42:34;;;;;;;15.80;2.83;;;;;;;;;;4970815;28;20492;-78
2023/12/20 11:45:03;;;;;;;14.15;2.58;;;;;;;;;;4970754;28;20035;-77
2023/12/20 11:47:29;;;;;;;21.52;3.92;;;;;;;;;;4990090;28;20085;-76
2023/12/20 11:49:56;;;;;;;18.33;2.95;;;;;;;;;;4989510;28;20030;-77
2023/12/20 11:52:22;;;;;;;17.27;2.35;;;;;;;;;;4994224;28;20507;-77
2023/12/20 11:54:48;;;;;;;17.45;2.65;;;;;;;;;;4993969;28;20379;-78
2023/12/20 11:57:14;;;;;;;19.77;3.50;;;;;;;;;;4992374;28;20034;-78
2023/12/20 11:59:40;;;;;;;22.80;7.38;;;;;;;;;;4995674;28;20042;-77
2023/12/20 12:02:06;;;;;;;18.83;3.67;;;;;;;;;;4990573;28;20026;-77
2023/12/20 12:04:32;;;;;;;13.13;2.63;;;;;;;;;;4990996;28;20046;-78
2023/12/20 12:06:59;;;;;;;16.92;2.85;;;;;;;;;;4993534;28;20030;-77
2023/12/20 12:09:25;;;;;;;23.50;4.20;;;;;;;;;;4993564;28;20543;-78
2023/12/20 12:11:51;;;;;;;25.77;4.22;;;;;;;;;;4993257;28;20106;-78
2023/12/20 12:14:19;;;;;;;18.08;3.10;;;;;;;;;;4993326;28;20057;-80
2023/12/20 12:16:45;;;;;;;22.17;3.95;;;;;;;;;;4994126;28;20483;-78
2023/12/20 12:19:24;;;;;;;19.17;3.50;;;;;;;;;;4990931;28;20076;-78
2023/12/20 12:21:51;;;;;;;17.23;2.78;;;;;;;;;;4978950;28;20045;-78
2023/12/20 12:24:21;;;;;;;20.30;2.78;;;;;;;;;;4993449;28;20030;-78
2023/12/20 12:26:53;;;;;;;23.95;3.30;;;;;;;;;;4993587;28;20027;-79
2023/12/20 12:29:19;;;;;;;18.27;3.00;;;;;;;;;;4991809;28;20045;-78
2023/12/20 12:31:45;;;;;;;14.55;2.95;;;;;;;;;;4993621;28;20038;-78
2023/12/20 12:34:11;;;;;;;18.60;1.95;;;;;;;;;;4998683;28;20020;-78
2023/12/20 12:36:37;;;;;;;15.38;2.17;;;;;;;;;;4988056;28;20027;-78
2023/12/20 12:39:04;;;;;;;14.05;2.47;;;;;;;;;;4992156;28;20022;-78
2023/12/20 12:41:31;;;;;;;12.38;2.30;;;;;;;;;;4987135;28;20042;-78
2023/12/20 12:43:57;;;;;;;15.00;2.38;;;;;;;;;;4998127;28;20067;-79
2023/12/20 12:46:23;;;;;;;11.25;1.63;;;;;;;;;;5002373;28;20041;-80
2023/12/20 12:48:50;;;;;;;18.92;2.75;;;;;;;;;;4993394;28;20037;-77
2023/12/20 12:51:16;;;;;;;12.55;1.95;;;;;;;;;;4993355;28;20057;-79
2023/12/20 12:53:42;;;;;;;19.10;2.35;;;;;;;;;;4986329;28;20060;-77
2023/12/20 12:56:08;;;;;;;12.23;2.50;;;;;;;;;;4990049;28;20029;-77
2023/12/20 12:58:34;;;;;;;15.40;2.60;;;;;;;;;;4987104;28;20026;-77
2023/12/20 13:01:00;;;;;;;15.18;1.50;;;;;;;;;;4993294;28;20129;-77
2023/12/20 13:03:26;;;;;;;7.32;1.50;;;;;;;;;;4991363;28;20026;-77
2023/12/20 13:05:53;;;;;;;6.35;1.35;;;;;;;;;;4987836;28;20495;-76
2023/12/20 13:08:19;;;;;;;9.38;2.08;;;;;;;;;;4992672;28;20109;-77
2023/12/20 13:10:45;;;;;;;7.32;1.50;;;;;;;;;;4993099;28;20042;-77
2023/12/20 13:13:11;;;;;;;11.65;2.58;;;;;;;;;;4992634;28;20031;-76
2023/12/20 13:15:37;;;;;;;11.95;2.58;;;;;;;;;;4991471;28;20026;-76
2023/12/20 13:18:04;;;;;;;17.38;2.10;;;;;;;;;;4991760;28;20061;-76
2023/12/20 13:20:30;;;;;;;10.73;1.48;;;;;;;;;;4990117;28;20030;-77
2023/12/20 13:22:56;;;;;;;11.25;1.80;;;;;;;;;;4991092;28;20098;-77
2023/12/20 13:25:23;;;;;;;11.13;2.28;;;;;;;;;;4987487;28;20030;-77
2023/12/20 13:27:49;;;;;;;12.15;2.55;;;;;;;;;;4989563;28;20120;-75
2023/12/20 13:30:17;;;;;;;16.30;2.03;;;;;;;;;;4990943;28;20038;-75
2023/12/20 13:32:44;;;;;;;13.48;2.72;;;;;;;;;;4992570;28;20024;-75
2023/12/20 13:35:10;;;;;;;18.45;2.30;;;;;;;;;;4992262;28;20026;-75
2023/12/20 13:37:36;;;;;;;10.07;1.80;;;;;;;;;;4987686;28;20058;-75
2023/12/20 13:40:04;;;;;;;8.93;1.30;;;;;;;;;;4989637;28;20448;-76
2023/12/20 13:42:30;;;;;;;8.57;1.30;;;;;;;;;;4992252;28;20530;-78
2023/12/20 13:44:56;;;;;;;9.98;1.40;;;;;;;;;;4992367;28;20077;-75
2023/12/20 13:47:22;;;;;;;12.50;1.65;;;;;;;;;;4992109;28;20110;-76
2023/12/20 13:49:48;;;;;;;10.27;1.65;;;;;;;;;;4991273;28;20094;-75
2023/12/20 13:52:14;;;;;;;8.25;1.60;;;;;;;;;;4991668;28;20032;-76
2023/12/20 13:54:40;;;;;;;16.17;1.98;;;;;;;;;;4991372;28;20034;-76
2023/12/20 13:57:06;;;;;;;10.23;1.30;;;;;;;;;;4990450;28;20034;-77
2023/12/20 13:59:32;;;;;;;13.40;1.38;;;;;;;;;;4991663;28;20072;-80
2023/12/20 14:01:58;;;;;;;9.07;1.42;;;;;;;;;;4986917;28;20026;-76
2023/12/20 14:04:24;;;;;;;15.98;2.33;;;;;;;;;;4988874;28;20054;-76
2023/12/20 14:06:50;;;;;;;17.80;2.17;;;;;;;;;;4992285;28;20384;-76
2023/12/20 14:09:16;;;;;;;8.20;1.48;;;;;;;;;;4991411;28;20383;-76
2023/12/20 14:11:42;;;;;;;10.93;1.05;;;;;;;;;;4990742;28;20488;-76
2023/12/20 14:14:09;;;;;;;15.95;1.80;;;;;;;;;;4991322;28;20027;-76
2023/12/20 14:16:36;;;;;;;3.78;1.33;;;;;;;;;;4989001;28;20026;-77
2023/12/20 14:19:03;;;;;;;9.75;1.80;;;;;;;;;;4978230;28;20042;-76
2023/12/20 14:21:29;;;;;;;7.97;1.55;;;;;;;;;;4988594;28;20113;-78
2023/12/20 14:23:55;;;;;;;13.50;2.17;;;;;;;;;;4991046;28;20117;-76
2023/12/20 14:26:21;;;;;;;8.25;1.77;;;;;;;;;;4986147;28;20037;-76
2023/12/20 14:28:47;;;;;;;14.70;2.72;;;;;;;;;;4988806;28;20046;-76